»·PEaware :: SWA420 KJAC-KRNO

SWA420 :: KJAC-KRNO

FLIGHT INFORMATION

Flight Status: Arrived
Operator:
Southwest Airlines
More flights by this operator :: More flights under this callsign
Pilot: Allan B. (26555)
Aircraft: BOEING 737-300
(B733)
More flights by this aircraft type
Origin: KJAC Jackson Hole
United States
Destination: KRNO Reno/Tahoe Intl
United States
More flights between these airports :: More routes between these airports
Route: +ALPIN2 KICNE PIH PARZZ MYBAD MYBAD2
File this flight plan on PilotEdge
Remarks:
Altitude:
(Current/Filed)
34,000ft
Speed:
(Current/Filed)
420kts
Departed: 26-Sep-20 04:11 PM
Arrived: 26-Sep-20 05:47 PM
Distance/Time
Traveled:
474nm/1:36
Distance/Time
To Go:
Arrived

Flight Plot

Page will automatically refresh every two minutes.

Flight plan parsing failed; only flown route is shown


Map Options




Map Legend


Flown Route
Filed Route
Departure Airport
Arrival Airport
Navaid (VOR, NDB)
Fix

Horizontal Profiles

Position Reports

Time Latitude Longitude Heading Altitude Ground
Speed
26-Sep-20 15:21 43.604258 -110.736664 109 6458ft 0kts
26-Sep-20 15:22 43.604258 -110.736664 109 6458ft 0kts
26-Sep-20 15:23 43.604258 -110.736664 109 6458ft 0kts
26-Sep-20 15:24 43.604258 -110.736664 109 6458ft 0kts
26-Sep-20 15:25 43.604258 -110.736664 109 6458ft 0kts
26-Sep-20 15:26 43.604258 -110.736664 109 6458ft 0kts
26-Sep-20 15:27 43.604258 -110.736664 109 6458ft 0kts
26-Sep-20 15:28 43.604258 -110.736664 109 6458ft 0kts
26-Sep-20 15:29 43.604258 -110.736664 109 6458ft 0kts
26-Sep-20 15:30 43.604258 -110.736664 109 6458ft 0kts
26-Sep-20 15:31 43.604258 -110.736664 109 6458ft 0kts
26-Sep-20 15:32 43.604258 -110.736664 109 6458ft 0kts
26-Sep-20 15:33 43.604258 -110.736664 109 6458ft 0kts
26-Sep-20 15:34 43.604258 -110.736664 109 6458ft 0kts
26-Sep-20 15:35 43.604258 -110.736664 109 6458ft 0kts
26-Sep-20 15:36 43.604258 -110.736664 109 6458ft 0kts
26-Sep-20 15:39 43.604258 -110.736664 109 6458ft 0kts
26-Sep-20 15:40 43.604258 -110.736664 109 6458ft 0kts
26-Sep-20 15:41 43.604258 -110.736664 109 6458ft 0kts
26-Sep-20 15:42 43.604258 -110.736664 109 6458ft 0kts
26-Sep-20 15:43 43.604258 -110.736664 109 6458ft 0kts
26-Sep-20 15:44 43.604258 -110.736664 109 6458ft 0kts
26-Sep-20 15:45 43.604258 -110.736664 109 6458ft 0kts
26-Sep-20 15:46 43.604258 -110.736664 109 6458ft 0kts
26-Sep-20 15:47 43.604258 -110.736664 109 6458ft 0kts
26-Sep-20 15:48 43.604258 -110.736664 109 6458ft 0kts
26-Sep-20 15:49 43.604258 -110.736664 109 6458ft 0kts
26-Sep-20 15:50 43.604268 -110.736703 109 6458ft 0kts
26-Sep-20 15:51 43.604381 -110.737500 66 6458ft 3kts
26-Sep-20 15:52 43.604207 -110.737711 24 6458ft 0kts
26-Sep-20 15:53 43.605797 -110.736931 17 6458ft 11kts
26-Sep-20 15:54 43.609566 -110.735086 18 6458ft 15kts
26-Sep-20 15:55 43.612426 -110.733648 21 6458ft 8kts
26-Sep-20 15:56 43.613269 -110.732780 28 6458ft 0kts
26-Sep-20 15:57 43.613269 -110.732780 28 6458ft 0kts
26-Sep-20 15:58 43.613269 -110.732780 28 6458ft 0kts
26-Sep-20 15:59 43.613269 -110.732780 28 6458ft 0kts
26-Sep-20 16:00 43.613269 -110.732780 28 6458ft 0kts
26-Sep-20 16:01 43.613269 -110.732780 28 6458ft 0kts
26-Sep-20 16:02 43.613269 -110.732780 28 6458ft 0kts
26-Sep-20 16:03 43.613269 -110.732780 28 6458ft 0kts
26-Sep-20 16:05 43.613269 -110.732780 28 6458ft 0kts
26-Sep-20 16:06 43.613269 -110.732780 28 6458ft 0kts
26-Sep-20 16:07 43.613269 -110.732780 28 6458ft 0kts
26-Sep-20 16:08 43.613692 -110.732650 6 6458ft 3kts
26-Sep-20 16:09 43.614971 -110.732755 325 6458ft 5kts
26-Sep-20 16:10 43.615121 -110.733948 210 6458ft 4kts
26-Sep-20 16:11 43.584228 -110.750954 204 7203ft 166kts
26-Sep-20 16:12 43.538005 -110.770479 198 8841ft 181kts
26-Sep-20 16:13 43.486599 -110.796950 206 9350ft 215kts
26-Sep-20 16:14 43.421009 -110.842671 212 10762ft 287kts
26-Sep-20 16:15 43.351121 -110.901022 218 13730ft 289kts
26-Sep-20 16:16 43.286230 -110.964074 223 16402ft 289kts
26-Sep-20 16:17 43.220131 -111.039860 227 17990ft 322kts
26-Sep-20 16:18 43.152100 -111.130786 231 19556ft 349kts
26-Sep-20 16:18 43.096110 -111.215708 235 20845ft 359kts
26-Sep-20 16:20 43.022339 -111.341376 239 22625ft 363kts
26-Sep-20 16:21 42.963043 -111.457469 245 24091ft 365kts
26-Sep-20 16:22 42.967735 -111.590540 274 25728ft 356kts
26-Sep-20 16:22 42.967075 -111.707612 271 27241ft 358kts
26-Sep-20 16:23 42.974810 -111.843121 284 28919ft 356kts
26-Sep-20 16:25 43.000869 -111.998410 272 31227ft 346kts
26-Sep-20 16:25 42.987052 -112.109539 262 32386ft 352kts
26-Sep-20 16:26 42.959931 -112.242320 261 33222ft 358kts
26-Sep-20 16:27 42.931538 -112.375658 262 34140ft 357kts
26-Sep-20 16:28 42.902466 -112.511098 261 34143ft 366kts
26-Sep-20 16:29 42.872297 -112.649367 260 34136ft 369kts
26-Sep-20 16:30 42.820517 -112.779383 251 34121ft 383kts
26-Sep-20 16:31 42.767912 -112.911242 246 34122ft 396kts
26-Sep-20 16:32 42.697940 -113.035814 244 34128ft 406kts
26-Sep-20 16:33 42.630185 -113.164064 244 34154ft 407kts
26-Sep-20 16:34 42.563470 -113.289657 244 34155ft 408kts
26-Sep-20 16:35 42.495636 -113.416766 244 34167ft 405kts
26-Sep-20 16:36 42.428106 -113.542841 244 34163ft 407kts
26-Sep-20 16:37 42.359993 -113.669439 243 34148ft 407kts
26-Sep-20 16:38 42.292502 -113.794488 244 34160ft 402kts
26-Sep-20 16:39 42.225235 -113.918473 244 34176ft 400kts
26-Sep-20 16:40 42.159248 -114.039539 244 34159ft 394kts
26-Sep-20 16:41 42.092336 -114.161836 244 34173ft 396kts
26-Sep-20 16:42 42.025043 -114.284319 244 34181ft 390kts
26-Sep-20 16:43 41.958506 -114.405036 243 34184ft 390kts
26-Sep-20 16:44 41.892116 -114.524909 244 34165ft 391kts
26-Sep-20 16:45 41.824223 -114.646523 244 34182ft 390kts
26-Sep-20 16:46 41.757293 -114.766628 243 34182ft 390kts
26-Sep-20 16:47 41.690344 -114.886137 243 34181ft 392kts
26-Sep-20 16:48 41.621395 -115.008700 243 34176ft 391kts
26-Sep-20 16:49 41.568077 -115.140338 255 34170ft 382kts
26-Sep-20 16:50 41.522101 -115.273735 255 34160ft 372kts
26-Sep-20 16:51 41.476200 -115.406285 255 34165ft 373kts
26-Sep-20 16:52 41.429866 -115.539384 255 34160ft 372kts
26-Sep-20 16:53 41.383687 -115.671485 254 34143ft 374kts
26-Sep-20 16:54 41.336772 -115.805138 254 34165ft 374kts
26-Sep-20 16:55 41.290695 -115.935663 254 34160ft 374kts
26-Sep-20 16:56 41.245458 -116.063202 254 34161ft 373kts
26-Sep-20 16:57 41.199270 -116.192847 254 34166ft 373kts
26-Sep-20 16:58 41.152834 -116.322595 254 34163ft 373kts
26-Sep-20 16:59 41.105933 -116.453061 254 34159ft 374kts
26-Sep-20 17:00 41.057881 -116.586159 253 34172ft 383kts
26-Sep-20 17:01 41.008855 -116.721366 252 34176ft 391kts
26-Sep-20 17:02 40.958768 -116.858766 251 34170ft 398kts
26-Sep-20 17:03 40.907564 -116.998500 250 34171ft 400kts
26-Sep-20 17:04 40.856227 -117.137178 250 34173ft 403kts
26-Sep-20 17:05 40.803577 -117.279417 250 34177ft 403kts
26-Sep-20 17:06 40.751014 -117.420801 250 34180ft 403kts
26-Sep-20 17:07 40.698945 -117.560179 250 34180ft 403kts
26-Sep-20 17:08 40.646839 -117.699121 249 34176ft 404kts
26-Sep-20 17:09 40.594324 -117.838463 249 34181ft 403kts
26-Sep-20 17:10 40.541270 -117.978467 249 34172ft 403kts
26-Sep-20 17:11 40.488575 -118.116841 249 34190ft 400kts
26-Sep-20 17:12 40.436562 -118.252810 250 34143ft 390kts
26-Sep-20 17:13 40.383736 -118.387328 244 32711ft 398kts
26-Sep-20 17:14 40.321096 -118.517775 244 30203ft 397kts
26-Sep-20 17:15 40.260677 -118.649898 247 27528ft 396kts
26-Sep-20 17:16 40.208455 -118.783859 247 25281ft 373kts
26-Sep-20 17:17 40.159312 -118.909110 246 23113ft 347kts
26-Sep-20 17:18 40.113331 -119.025664 246 20965ft 328kts
26-Sep-20 17:19 40.068719 -119.138048 245 18833ft 325kts
26-Sep-20 17:20 40.024787 -119.248230 245 16727ft 323kts
26-Sep-20 17:21 39.981609 -119.356461 245 14767ft 317kts
26-Sep-20 17:22 39.939139 -119.461811 241 13123ft 302kts
26-Sep-20 17:23 39.896400 -119.550650 240 12491ft 269kts
26-Sep-20 17:24 39.848379 -119.630114 233 11083ft 266kts
26-Sep-20 17:25 39.798579 -119.707913 233 11054ft 270kts
26-Sep-20 17:26 39.750629 -119.785296 235 11047ft 268kts
26-Sep-20 17:27 39.703479 -119.864639 235 11050ft 269kts
26-Sep-20 17:28 39.652743 -119.937083 205 11045ft 276kts
26-Sep-20 17:29 39.576355 -119.923121 163 11043ft 287kts
26-Sep-20 17:30 39.500308 -119.889535 163 11025ft 287kts
26-Sep-20 17:31 39.424303 -119.856040 163 11017ft 287kts
26-Sep-20 17:32 39.347575 -119.822274 163 11009ft 287kts
26-Sep-20 17:33 39.269849 -119.806338 192 11006ft 281kts
26-Sep-20 17:34 39.193114 -119.824225 193 11044ft 268kts
26-Sep-20 17:35 39.119635 -119.817558 140 11005ft 278kts
26-Sep-20 17:36 39.121252 -119.739986 18 10999ft 217kts
26-Sep-20 17:37 39.175213 -119.752559 331 11010ft 193kts
26-Sep-20 17:38 39.222025 -119.781670 325 10759ft 182kts
26-Sep-20 17:39 39.267344 -119.804891 4 9453ft 186kts
26-Sep-20 17:40 39.312573 -119.775120 8 8155ft 170kts
26-Sep-20 17:41 39.357564 -119.768874 357 7063ft 154kts
26-Sep-20 17:42 39.400679 -119.769726 0 6025ft 151kts
26-Sep-20 17:43 39.442034 -119.769429 0 5343ft 148kts
26-Sep-20 17:44 39.483138 -119.769526 359 4515ft 135kts
26-Sep-20 17:45 39.505352 -119.769245 1 4422ft 42kts
26-Sep-20 17:46 39.511029 -119.770111 271 4422ft 0kts
26-Sep-20 17:47 39.510233 -119.771542 187 4422ft 12kts

Navigation Log

Ident Type
Flight plan parsing failed, navigation log unavailable